BIQ weather

Biarritz-Anglet-Bayonne Airport
Biarritz/Anglet/Bayonne, Nouvelle-Aquitaine, France

Public forecast

Using degrees Celsius for public forecast. Weather courtesy of forecast.io.

Current aviation weather report (METAR) for Biarritz-Anglet-Bayonne Airport

Retrieved 2020/04/06 09:00 UTC (15 minutes ago):

LFBZ 060900Z AUTO VRB02KT 9999 -RA FEW035/// BKN066/// OVC080/// ///TCU 15/12 Q1020

Aviation forecast (TAF) for Biarritz-Anglet-Bayonne Airport

Forecast is more than 12 hours old.

Retrieved 2020/03/27 17:58 UTC (10 days ago):

TAF LFBT 271100Z 2717/2812 CNL TAF LFBZ 271100Z 2717/2812 CNL